createdAt,value
2018-04-30T00:01:57.507Z,70.40
2018-04-30T00:04:27.874Z,71.00
2018-04-30T00:06:57.606Z,71.00
2018-04-30T00:09:27.101Z,71.50
2018-04-30T00:11:57.338Z,71.90
2018-04-30T00:14:27.156Z,72.00
2018-04-30T00:16:56.641Z,71.90
2018-04-30T00:19:26.360Z,71.70
2018-04-30T00:21:55.976Z,72.20
2018-04-30T00:24:25.548Z,71.60
2018-04-30T00:26:55.930Z,72.40
2018-04-30T00:29:25.718Z,72.40
2018-04-30T00:31:57.543Z,73.40
2018-04-30T00:34:27.289Z,73.30
2018-04-30T00:36:56.958Z,73.60
2018-04-30T00:39:26.535Z,71.90
2018-04-30T00:41:56.981Z,72.90
2018-04-30T00:44:27.397Z,73.10
2018-04-30T00:46:57.925Z,73.90
2018-04-30T00:49:28.506Z,73.80
2018-04-30T00:51:58.193Z,73.70
2018-04-30T00:54:45.577Z,74.10
2018-04-30T00:57:15.476Z,73.20
2018-04-30T00:59:45.219Z,74.00
2018-04-30T01:02:15.824Z,75.30
2018-04-30T01:04:46.038Z,75.20
2018-04-30T01:07:15.853Z,74.60
2018-04-30T01:09:45.865Z,74.40
2018-04-30T01:12:19.772Z,74.50
2018-04-30T01:14:49.687Z,74.10
2018-04-30T01:17:19.957Z,74.10
2018-04-30T01:19:50.813Z,75.20
2018-04-30T01:22:20.767Z,75.10
2018-04-30T01:24:51.318Z,74.10
2018-04-30T01:27:22.784Z,73.40
2018-04-30T01:29:53.697Z,72.40
2018-04-30T01:32:24.087Z,74.70
2018-04-30T01:34:54.873Z,75.90
2018-04-30T01:37:25.461Z,78.60
2018-04-30T01:39:55.143Z,79.20
2018-04-30T01:42:24.695Z,78.80
2018-04-30T01:44:54.404Z,78.10
2018-04-30T01:47:23.962Z,77.80
2018-04-30T01:49:53.557Z,77.90
2018-04-30T01:52:24.894Z,78.30
2018-04-30T01:54:54.680Z,78.30
2018-04-30T01:57:24.288Z,77.90
2018-04-30T01:59:54.120Z,78.40
2018-04-30T02:02:24.745Z,80.30
2018-04-30T02:04:54.296Z,79.50
2018-04-30T02:07:24.857Z,79.50
2018-04-30T02:09:54.689Z,79.50
2018-04-30T02:12:24.585Z,79.60
2018-04-30T02:14:55.042Z,79.90
2018-04-30T02:17:24.856Z,79.80
2018-04-30T02:19:54.437Z,80.20
2018-04-30T02:22:24.242Z,80.20
2018-04-30T02:24:53.875Z,80.60
2018-04-30T02:27:23.453Z,80.70
2018-04-30T02:29:53.405Z,80.50
2018-04-30T02:32:23.833Z,80.40
2018-04-30T02:34:53.576Z,79.20
2018-04-30T02:37:25.472Z,78.40
2018-04-30T02:39:55.071Z,78.40
2018-04-30T02:42:24.782Z,77.80
2018-04-30T02:44:55.761Z,78.00
2018-04-30T02:47:25.583Z,77.90
2018-04-30T02:49:55.084Z,77.80
2018-04-30T02:52:24.782Z,78.40
2018-04-30T02:54:54.505Z,80.00
2018-04-30T02:57:24.201Z,80.20
2018-04-30T02:59:53.811Z,79.80
2018-04-30T03:02:23.408Z,79.20
2018-04-30T03:04:52.947Z,79.20
2018-04-30T03:07:23.629Z,79.50
2018-04-30T03:09:53.941Z,79.50
2018-04-30T03:12:24.425Z,79.50
2018-04-30T03:14:54.119Z,79.50
2018-04-30T03:17:24.017Z,79.30
2018-04-30T03:19:53.718Z,79.50
2018-04-30T03:22:24.079Z,79.40
2018-04-30T03:24:54.538Z,79.10
2018-04-30T03:27:25.035Z,79.20
2018-04-30T03:29:55.700Z,79.20
2018-04-30T03:32:25.400Z,79.80
2018-04-30T03:34:54.913Z,79.80
2018-04-30T03:37:25.524Z,79.90
2018-04-30T03:39:55.241Z,79.90
2018-04-30T03:42:26.181Z,79.90
2018-04-30T03:44:56.820Z,80.40
2018-04-30T03:47:26.734Z,80.40
2018-04-30T03:49:56.986Z,80.50
2018-04-30T03:52:27.645Z,79.00
2018-04-30T03:54:57.189Z,79.00
2018-04-30T03:57:26.849Z,79.40
2018-04-30T03:59:56.401Z,79.00
2018-04-30T04:02:43.829Z,78.00
2018-04-30T04:05:31.154Z,77.30
2018-04-30T04:08:00.606Z,77.20
2018-04-30T04:10:30.439Z,76.70
2018-04-30T04:13:00.241Z,76.60
2018-04-30T04:15:30.104Z,76.50
2018-04-30T04:17:59.985Z,77.20
2018-04-30T04:20:30.320Z,77.80
2018-04-30T04:23:00.163Z,77.80
2018-04-30T04:25:30.246Z,78.40
2018-04-30T04:28:01.502Z,79.90
2018-04-30T04:30:31.844Z,79.80
2018-04-30T04:33:01.394Z,79.50
2018-04-30T04:35:31.174Z,80.40
2018-04-30T04:38:00.995Z,81.00
2018-04-30T04:40:30.537Z,80.80
2018-04-30T04:43:01.138Z,80.10
2018-04-30T04:45:30.832Z,80.10
2018-04-30T04:48:00.626Z,79.40
2018-04-30T04:50:30.815Z,78.50
2018-04-30T04:53:01.172Z,78.00
2018-04-30T04:55:36.631Z,77.50
2018-04-30T04:58:06.968Z,76.80
2018-04-30T05:00:37.447Z,76.80
2018-04-30T05:03:07.883Z,77.50
2018-04-30T05:05:38.059Z,77.50
2018-04-30T05:08:07.846Z,76.50
2018-04-30T05:10:38.134Z,76.10
2018-04-30T05:13:07.866Z,75.60
2018-04-30T05:15:38.135Z,75.70
2018-04-30T05:18:07.785Z,75.90
2018-04-30T05:20:38.349Z,76.10
2018-04-30T05:23:07.822Z,75.40
2018-04-30T05:25:39.258Z,76.60
2018-04-30T05:28:09.731Z,76.70
2018-04-30T05:30:39.853Z,76.70
2018-04-30T05:33:09.493Z,76.60
2018-04-30T05:35:39.929Z,76.50
2018-04-30T05:38:09.482Z,76.70
2018-04-30T05:40:40.035Z,75.60
2018-04-30T05:43:09.502Z,75.50
2018-04-30T05:45:39.552Z,74.40
2018-04-30T05:48:09.167Z,74.70
2018-04-30T05:50:40.096Z,74.00
2018-04-30T05:53:09.876Z,74.00
2018-04-30T05:55:39.975Z,73.30
2018-04-30T05:58:10.212Z,71.00
2018-04-30T06:00:40.550Z,71.10
2018-04-30T06:03:10.222Z,71.10
2018-04-30T06:05:40.689Z,70.40
2018-04-30T06:08:11.579Z,70.30
2018-04-30T06:10:41.145Z,69.10
2018-04-30T06:13:13.260Z,68.10
2018-04-30T06:15:43.622Z,67.00
2018-04-30T06:18:13.627Z,66.90
2018-04-30T06:20:43.172Z,66.40
2018-04-30T06:23:12.851Z,65.60
2018-04-30T06:25:42.935Z,65.30
2018-04-30T06:28:12.832Z,65.50
2018-04-30T06:30:42.533Z,64.30
2018-04-30T06:33:12.108Z,64.70
2018-04-30T06:35:42.459Z,64.30
2018-04-30T06:38:12.089Z,64.30
2018-04-30T06:40:41.733Z,61.80
2018-04-30T06:43:11.386Z,61.20
2018-04-30T06:45:41.106Z,60.00
2018-04-30T06:48:10.762Z,55.50
2018-04-30T06:50:41.348Z,47.20
2018-04-30T06:53:12.286Z,47.20
2018-04-30T06:55:41.954Z,44.50
2018-04-30T06:58:12.621Z,41.20
2018-04-30T07:00:42.112Z,41.20
2018-04-30T07:03:12.460Z,30.20
2018-04-30T07:05:43.041Z,30.40
2018-04-30T07:08:12.587Z,34.00
2018-04-30T07:10:43.638Z,32.50
2018-04-30T07:13:13.239Z,39.50
2018-04-30T07:15:42.737Z,38.40
2018-04-30T07:18:13.192Z,41.80
2018-04-30T07:20:42.995Z,41.80
2018-04-30T07:23:12.696Z,42.30
2018-04-30T07:25:42.305Z,45.20
2018-04-30T07:28:12.237Z,48.80
2018-04-30T07:30:43.329Z,51.20
2018-04-30T07:33:14.133Z,53.90
2018-04-30T07:35:44.298Z,51.60
2018-04-30T07:38:13.816Z,48.40
2018-04-30T07:40:46.434Z,50.20
2018-04-30T07:43:15.874Z,50.20
2018-04-30T07:45:46.221Z,42.90
2018-04-30T07:48:15.848Z,43.00
2018-04-30T07:50:45.546Z,42.50
2018-04-30T07:53:15.801Z,39.50
2018-04-30T07:55:45.507Z,39.50
2018-04-30T07:58:15.057Z,39.10
2018-04-30T08:00:45.548Z,41.90
2018-04-30T08:03:16.954Z,49.10
2018-04-30T08:05:47.412Z,53.50
2018-04-30T08:08:18.235Z,54.20
2018-04-30T08:10:49.205Z,57.40
2018-04-30T08:13:19.809Z,59.60
2018-04-30T08:15:50.035Z,59.00
2018-04-30T08:18:20.600Z,56.90
2018-04-30T08:20:50.602Z,57.50
2018-04-30T08:23:20.147Z,57.60
2018-04-30T08:25:51.662Z,58.10
2018-04-30T08:28:22.442Z,55.00
2018-04-30T08:30:52.224Z,56.40
2018-04-30T08:33:21.719Z,56.00
2018-04-30T08:35:51.343Z,60.80
2018-04-30T08:38:20.819Z,60.50
2018-04-30T08:40:51.203Z,64.80
2018-04-30T08:43:20.762Z,64.90
2018-04-30T08:45:50.233Z,62.70
2018-04-30T08:48:20.585Z,62.50
2018-04-30T08:50:50.200Z,62.60
2018-04-30T08:53:20.387Z,59.40
2018-04-30T08:55:50.266Z,62.30
2018-04-30T08:58:20.822Z,60.80
2018-04-30T09:00:50.558Z,56.50
2018-04-30T09:03:20.065Z,54.20
2018-04-30T09:05:50.060Z,57.10
2018-04-30T09:08:19.702Z,54.30
2018-04-30T09:10:51.798Z,55.00
2018-04-30T09:13:21.485Z,59.10
2018-04-30T09:15:51.064Z,56.50
2018-04-30T09:18:21.353Z,58.20
2018-04-30T09:20:51.075Z,57.50
2018-04-30T09:23:20.747Z,62.40
2018-04-30T09:25:50.260Z,65.20
2018-04-30T09:28:19.868Z,65.70
2018-04-30T09:30:49.590Z,64.10
2018-04-30T09:33:19.246Z,64.00
2018-04-30T09:35:48.703Z,64.80
2018-04-30T09:38:18.255Z,65.10
2018-04-30T09:40:47.804Z,65.30
2018-04-30T09:43:17.341Z,66.60
2018-04-30T09:45:47.519Z,64.70
2018-04-30T09:48:18.370Z,65.00
2018-04-30T09:50:47.981Z,67.60
2018-04-30T09:53:18.502Z,69.50
2018-04-30T09:55:48.247Z,69.60
2018-04-30T09:58:17.691Z,69.30
2018-04-30T10:00:47.411Z,67.30
2018-04-30T10:03:17.023Z,62.50
2018-04-30T10:05:47.341Z,55.70
2018-04-30T10:08:16.848Z,55.10
2018-04-30T10:10:46.443Z,56.20
2018-04-30T10:13:23.469Z,55.40
2018-04-30T10:15:52.942Z,55.50
2018-04-30T10:18:22.593Z,53.90
2018-04-30T10:20:53.095Z,52.20
2018-04-30T10:23:22.688Z,52.30
2018-04-30T10:25:53.013Z,54.80
2018-04-30T10:28:22.683Z,54.80
2018-04-30T10:30:52.356Z,55.70
2018-04-30T10:33:22.055Z,55.30
2018-04-30T10:35:51.813Z,56.90
2018-04-30T10:38:21.371Z,53.00
2018-04-30T10:40:50.853Z,52.10
2018-04-30T10:43:20.344Z,47.90
2018-04-30T10:45:50.087Z,47.30
2018-04-30T10:48:19.670Z,48.90
2018-04-30T10:50:49.117Z,50.10
2018-04-30T10:53:19.432Z,51.00
2018-04-30T10:55:49.186Z,50.20
2018-04-30T10:58:19.676Z,49.50
2018-04-30T11:00:49.145Z,49.50
2018-04-30T11:03:19.468Z,46.70
2018-04-30T11:05:48.925Z,46.90
2018-04-30T11:08:18.688Z,47.30
2018-04-30T11:10:51.263Z,44.00
2018-04-30T11:13:21.204Z,44.10
2018-04-30T11:15:50.865Z,41.90
2018-04-30T11:18:20.322Z,40.20
2018-04-30T11:20:58.457Z,38.50
2018-04-30T11:23:27.952Z,35.20
2018-04-30T11:25:58.290Z,34.00
2018-04-30T11:28:29.840Z,34.60
2018-04-30T11:30:59.371Z,34.70
2018-04-30T11:33:28.803Z,33.20
2018-04-30T11:35:58.546Z,32.10
2018-04-30T11:38:28.159Z,30.60
2018-04-30T11:40:58.079Z,30.70
2018-04-30T11:43:27.605Z,33.80
2018-04-30T11:45:58.357Z,36.80
2018-04-30T11:48:28.675Z,45.20
2018-04-30T11:50:58.167Z,45.20
2018-04-30T11:53:27.910Z,46.50
2018-04-30T11:55:58.388Z,45.20
2018-04-30T11:58:27.910Z,45.30
2018-04-30T12:00:57.470Z,43.90
2018-04-30T12:03:29.145Z,40.70
2018-04-30T12:05:58.680Z,40.80
2018-04-30T12:08:28.404Z,41.40
2018-04-30T12:10:57.906Z,40.30
2018-04-30T12:13:27.403Z,38.50
2018-04-30T12:15:57.066Z,42.80
2018-04-30T12:18:26.804Z,44.70
2018-04-30T12:20:56.464Z,45.80
2018-04-30T12:23:27.006Z,47.70
2018-04-30T12:25:57.408Z,52.60
2018-04-30T12:28:27.979Z,52.70
2018-04-30T12:30:57.573Z,52.80
2018-04-30T12:33:28.124Z,52.10
2018-04-30T12:35:57.691Z,52.10
2018-04-30T12:38:27.279Z,55.10
2018-04-30T12:40:58.562Z,53.80
2018-04-30T12:43:29.539Z,46.70
2018-04-30T12:45:59.308Z,46.80
2018-04-30T12:48:29.739Z,37.90
2018-04-30T12:50:59.353Z,38.00
2018-04-30T12:53:30.420Z,34.60
2018-04-30T12:56:00.061Z,34.70
2018-04-30T12:58:29.853Z,32.30
2018-04-30T13:00:59.762Z,33.80
2018-04-30T13:03:29.762Z,32.40
2018-04-30T13:06:00.244Z,32.60
2018-04-30T13:08:30.331Z,33.00
2018-04-30T13:10:59.928Z,31.10
2018-04-30T13:13:29.606Z,30.30
2018-04-30T13:15:59.990Z,36.30
2018-04-30T13:18:29.556Z,37.70
2018-04-30T13:20:59.939Z,42.90
2018-04-30T13:23:29.505Z,43.40
2018-04-30T13:25:59.245Z,44.00
2018-04-30T13:28:30.153Z,43.20
2018-04-30T13:30:59.708Z,43.30
2018-04-30T13:33:29.307Z,42.10
2018-04-30T13:36:01.903Z,41.70
2018-04-30T13:38:31.900Z,38.50
2018-04-30T13:41:01.556Z,38.80
2018-04-30T13:43:32.199Z,40.00
2018-04-30T13:46:02.891Z,38.30
2018-04-30T13:48:32.543Z,38.40
2018-04-30T13:51:02.280Z,37.30
2018-04-30T13:53:31.802Z,35.20
2018-04-30T13:56:01.283Z,35.80
2018-04-30T13:58:30.953Z,33.80
2018-04-30T14:01:00.601Z,34.60
2018-04-30T14:03:31.154Z,35.20
2018-04-30T14:06:00.808Z,34.70
2018-04-30T14:08:30.728Z,34.10
2018-04-30T14:11:01.008Z,32.70
2018-04-30T14:13:30.529Z,33.80
2018-04-30T14:16:02.195Z,35.40
2018-04-30T14:18:32.039Z,36.00
2018-04-30T14:21:10.833Z,31.20
2018-04-30T14:23:46.382Z,32.50
2018-04-30T14:26:19.728Z,32.80
2018-04-30T14:28:49.872Z,31.40
2018-04-30T14:31:20.378Z,31.20
2018-04-30T14:33:50.136Z,32.40
2018-04-30T14:36:22.170Z,32.40
2018-04-30T14:38:52.306Z,30.80
2018-04-30T14:41:22.211Z,30.20
2018-04-30T14:43:51.943Z,30.10
2018-04-30T14:46:23.620Z,31.20
2018-04-30T14:48:53.985Z,31.50
2018-04-30T14:51:23.605Z,31.40
2018-04-30T14:53:53.273Z,31.40
2018-04-30T14:56:23.686Z,33.50
2018-04-30T14:58:53.289Z,33.60
2018-04-30T15:01:23.026Z,33.30
2018-04-30T15:03:53.268Z,32.70
2018-04-30T15:06:23.568Z,32.70
2018-04-30T15:08:53.812Z,31.70
2018-04-30T15:11:23.293Z,31.90
2018-04-30T15:13:53.581Z,31.10
2018-04-30T15:16:23.462Z,31.20
2018-04-30T15:18:53.292Z,33.60
2018-04-30T15:21:23.047Z,33.30
2018-04-30T15:23:52.588Z,32.20
2018-04-30T15:26:22.333Z,32.80
2018-04-30T15:28:51.844Z,33.00
2018-04-30T15:31:21.356Z,33.70
2018-04-30T15:33:50.921Z,33.30
2018-04-30T15:36:20.499Z,33.90
2018-04-30T15:38:50.263Z,34.30
2018-04-30T15:41:20.571Z,34.20
2018-04-30T15:43:50.239Z,34.20
2018-04-30T15:46:19.782Z,34.30
2018-04-30T15:48:49.464Z,35.20
2018-04-30T15:51:19.130Z,34.50
2018-04-30T15:53:48.737Z,33.60
2018-04-30T15:56:18.529Z,32.50
2018-04-30T15:58:48.042Z,33.10
2018-04-30T16:01:17.752Z,33.20
2018-04-30T16:03:47.367Z,32.30
2018-04-30T16:06:17.040Z,31.70
2018-04-30T16:08:46.676Z,30.60
2018-04-30T16:11:17.200Z,35.80
2018-04-30T16:13:46.816Z,35.60
2018-04-30T16:16:16.707Z,39.80
2018-04-30T16:18:48.566Z,42.80
2018-04-30T16:21:19.589Z,43.70
2018-04-30T16:23:50.063Z,43.60
2018-04-30T16:26:20.391Z,45.50
2018-04-30T16:28:50.697Z,45.50
2018-04-30T16:31:20.218Z,47.70
2018-04-30T16:33:50.287Z,48.60
2018-04-30T16:36:20.976Z,50.80
2018-04-30T16:38:51.288Z,50.70
2018-04-30T16:41:22.509Z,53.00
2018-04-30T16:43:53.029Z,54.70
2018-04-30T16:46:22.782Z,54.70
2018-04-30T16:48:52.261Z,55.60
2018-04-30T16:51:22.569Z,57.10
2018-04-30T16:53:52.009Z,57.00
2018-04-30T16:56:21.613Z,58.60
2018-04-30T16:58:51.431Z,58.70
2018-04-30T17:01:22.289Z,59.90
2018-04-30T17:04:34.381Z,60.00
2018-04-30T17:14:06.705Z,59.80
2018-04-30T17:16:36.783Z,60.40
2018-04-30T17:19:06.603Z,60.30
2018-04-30T17:21:36.289Z,60.10
2018-04-30T17:24:06.150Z,59.90
2018-04-30T17:26:35.943Z,60.10
2018-04-30T17:29:05.872Z,60.10
2018-04-30T17:31:35.698Z,60.60
2018-04-30T17:34:05.919Z,60.40
2018-04-30T17:36:35.758Z,60.20
2018-04-30T17:39:07.252Z,60.60
2018-04-30T17:41:38.222Z,60.50
2018-04-30T17:44:08.641Z,60.50
2018-04-30T17:46:38.863Z,61.00
2018-04-30T17:49:08.986Z,61.20
2018-04-30T17:51:39.222Z,61.30
2018-04-30T17:54:08.788Z,61.60
2018-04-30T17:56:39.054Z,61.90
2018-04-30T17:59:08.599Z,62.20
2018-04-30T18:01:38.786Z,62.20
2018-04-30T18:04:08.712Z,62.90
2018-04-30T18:06:39.002Z,63.20
2018-04-30T18:09:08.746Z,63.50
2018-04-30T18:11:38.804Z,64.00
2018-04-30T18:14:08.436Z,64.80
2018-04-30T18:16:39.170Z,65.00
2018-04-30T18:19:10.219Z,65.70
2018-04-30T18:21:41.080Z,65.70
2018-04-30T18:24:11.482Z,65.70
2018-04-30T18:26:42.385Z,65.70
2018-04-30T18:29:12.505Z,65.70
2018-04-30T18:31:42.989Z,65.90
2018-04-30T18:34:13.483Z,65.90
2018-04-30T18:36:43.554Z,65.90
2018-04-30T18:39:14.281Z,66.00
2018-04-30T18:41:45.007Z,66.00
2018-04-30T18:44:14.888Z,66.30
2018-04-30T18:46:48.627Z,65.90
2018-04-30T18:49:19.765Z,65.20
2018-04-30T18:51:49.705Z,65.10
2018-04-30T18:54:21.321Z,65.00
2018-04-30T18:56:52.566Z,64.20
2018-04-30T18:59:23.637Z,64.00
2018-04-30T19:01:53.923Z,64.00
2018-04-30T19:04:24.276Z,63.80
2018-04-30T19:06:54.731Z,64.00
2018-04-30T19:09:25.139Z,63.90
2018-04-30T19:11:55.912Z,63.70
2018-04-30T19:14:26.932Z,63.60
2018-04-30T19:16:58.575Z,63.80
2018-04-30T19:19:29.274Z,63.70
2018-04-30T19:22:02.096Z,63.90
2018-04-30T19:24:33.137Z,64.20
2018-04-30T19:27:02.906Z,64.10
2018-04-30T19:29:32.687Z,64.20
2018-04-30T19:32:03.591Z,64.20
2018-04-30T19:34:34.394Z,64.50
2018-04-30T19:37:05.015Z,64.60
2018-04-30T19:39:37.644Z,64.40
2018-04-30T19:42:07.624Z,64.40
2018-04-30T19:44:38.676Z,64.40
2018-04-30T19:47:10.160Z,65.00
2018-04-30T19:49:41.707Z,65.00
2018-04-30T19:52:11.766Z,65.20
2018-04-30T19:54:42.037Z,65.60
2018-04-30T19:57:13.011Z,65.80
2018-04-30T19:59:44.148Z,66.10
2018-04-30T20:02:14.230Z,66.50
2018-04-30T20:04:45.198Z,67.50
2018-04-30T20:07:16.845Z,67.50
2018-04-30T20:09:47.234Z,67.70
2018-04-30T20:12:17.896Z,68.00
2018-04-30T20:14:51.449Z,68.60
2018-04-30T20:17:22.148Z,68.50
2018-04-30T20:19:52.165Z,69.00
2018-04-30T20:22:22.168Z,69.40
2018-04-30T20:24:52.096Z,70.20
2018-04-30T20:27:22.508Z,70.50
2018-04-30T20:29:52.064Z,70.80
2018-04-30T20:32:23.460Z,71.70
2018-04-30T20:34:54.334Z,72.10
2018-04-30T20:37:26.694Z,72.20
2018-04-30T20:39:59.479Z,72.10
2018-04-30T20:42:32.048Z,72.70
2018-04-30T20:45:04.311Z,73.30
2018-04-30T20:47:35.149Z,74.60
2018-04-30T20:50:07.272Z,75.00
2018-04-30T20:52:45.822Z,75.50
2018-04-30T20:55:19.535Z,75.90
2018-04-30T20:57:49.696Z,76.50
2018-04-30T21:00:20.302Z,76.80
2018-04-30T21:02:51.042Z,76.80
2018-04-30T21:05:21.302Z,77.00
2018-04-30T21:07:51.325Z,77.00
2018-04-30T21:10:22.601Z,77.60
2018-04-30T21:12:53.095Z,77.60
2018-04-30T21:15:25.067Z,77.60
2018-04-30T21:17:56.355Z,77.00
2018-04-30T21:20:26.750Z,77.00
2018-04-30T21:22:57.836Z,77.20
2018-04-30T21:25:30.452Z,77.70
2018-04-30T21:28:02.095Z,77.80
2018-04-30T21:30:32.327Z,77.90
2018-04-30T21:33:02.683Z,78.00
2018-04-30T21:35:35.198Z,77.90
2018-04-30T21:38:04.822Z,78.20
2018-04-30T21:40:34.974Z,78.10
2018-04-30T21:43:06.787Z,78.30
2018-04-30T21:45:37.221Z,78.30
2018-04-30T21:48:08.094Z,78.50
2018-04-30T21:50:38.490Z,78.50
2018-04-30T21:53:09.381Z,78.90
2018-04-30T21:55:42.445Z,79.00
2018-04-30T21:58:14.063Z,79.00
2018-04-30T22:00:45.118Z,79.20
2018-04-30T22:03:16.621Z,79.70
2018-04-30T22:05:46.982Z,80.60
2018-04-30T22:08:16.685Z,80.30
2018-04-30T22:10:46.327Z,80.80
2018-04-30T22:13:16.520Z,81.00
2018-04-30T22:15:46.350Z,81.00
2018-04-30T22:18:16.762Z,81.70
2018-04-30T22:20:46.472Z,81.70
2018-04-30T22:23:15.971Z,82.10
2018-04-30T22:25:45.734Z,82.20
2018-04-30T22:28:15.406Z,82.30
2018-04-30T22:30:45.307Z,82.40
2018-04-30T22:33:15.880Z,82.70
2018-04-30T22:35:49.860Z,82.70
2018-04-30T22:38:19.840Z,82.70
2018-04-30T22:40:50.201Z,82.70
2018-04-30T22:43:19.927Z,82.70
2018-04-30T22:45:50.174Z,82.90
2018-04-30T22:48:20.665Z,82.80
2018-04-30T22:50:50.144Z,83.20
2018-04-30T22:53:20.546Z,82.70
2018-04-30T22:55:50.113Z,82.80
2018-04-30T22:58:19.744Z,83.00
2018-04-30T23:00:49.275Z,83.10
2018-04-30T23:03:19.015Z,83.20
2018-04-30T23:05:49.369Z,83.50
2018-04-30T23:08:19.855Z,83.40
2018-04-30T23:10:50.149Z,83.40
2018-04-30T23:13:21.665Z,83.60
2018-04-30T23:15:52.092Z,83.60
2018-04-30T23:18:21.633Z,83.60
2018-04-30T23:20:54.497Z,83.90
2018-04-30T23:23:24.184Z,83.80
2018-04-30T23:25:54.454Z,84.00
2018-04-30T23:28:24.968Z,84.10
2018-04-30T23:30:54.881Z,84.00
2018-04-30T23:33:24.569Z,84.00
2018-04-30T23:35:54.279Z,84.20
2018-04-30T23:38:24.096Z,84.30
2018-04-30T23:40:53.911Z,84.60
2018-04-30T23:43:23.491Z,84.80
2018-04-30T23:45:53.006Z,85.00
2018-04-30T23:48:22.731Z,85.40
2018-04-30T23:50:52.307Z,85.60
2018-04-30T23:53:22.050Z,85.60
2018-04-30T23:55:51.761Z,86.00
2018-04-30T23:58:23.013Z,86.80
